Time,TemperatureF,DewpointF,PressureIn,WindDirection,WindDirectionDegrees,WindSpeedMPH,WindSpeedGustMPH,Humidity,HourlyPrecipIn,Conditions,Clouds,dailyrainin,SoftwareType,DateUTC
2013-01-30 00:01:00,22.0,16.0,30.13,West,270,7.0,17.0,77,0.00,,,-99.99,,2013-01-30 07:01:00,
2013-01-30 00:11:00,22.0,16.0,30.13,West,270,7.0,17.0,77,0.00,,,-99.99,,2013-01-30 07:11:00,
2013-01-30 00:21:00,22.0,15.0,30.13,East,90,7.0,17.0,75,0.00,,,-99.99,,2013-01-30 07:21:00,
2013-01-30 00:31:00,22.0,15.0,30.13,East,90,7.0,17.0,75,0.00,,,-99.99,,2013-01-30 07:31:00,
2013-01-30 00:41:00,22.0,15.0,30.13,East,90,7.0,17.0,75,0.00,,,-99.99,,2013-01-30 07:41:00,
2013-01-30 00:52:00,22.0,15.0,30.14,NE,45,2.0,8.0,73,0.00,,,-99.99,,2013-01-30 07:52:00,
2013-01-30 01:01:00,23.0,14.0,30.14,West,270,6.0,13.0,68,0.00,,,-99.99,,2013-01-30 08:01:00,
2013-01-30 01:11:00,23.0,14.0,30.14,West,270,6.0,13.0,68,0.00,,,-99.99,,2013-01-30 08:11:00,
2013-01-30 01:21:00,23.0,14.0,30.14,West,270,6.0,13.0,68,0.00,,,-99.99,,2013-01-30 08:21:00,
2013-01-30 01:32:00,22.0,12.0,30.15,NE,45,6.0,11.0,66,0.00,,,-99.99,,2013-01-30 08:32:00,
2013-01-30 01:42:00,22.0,12.0,30.15,NE,45,6.0,11.0,66,0.00,,,-99.99,,2013-01-30 08:42:00,
2013-01-30 01:52:00,22.0,12.0,30.15,NE,45,6.0,11.0,66,0.00,,,-99.99,,2013-01-30 08:52:00,
2013-01-30 02:01:00,22.0,12.0,30.15,NE,45,6.0,11.0,66,0.00,,,-99.99,,2013-01-30 09:01:00,
2013-01-30 02:32:00,18.0,10.0,30.16,West,270,8.0,14.0,70,0.00,,,-99.99,,2013-01-30 09:32:00,
2013-01-30 02:42:00,18.0,10.0,30.16,West,270,8.0,14.0,70,0.00,,,-99.99,,2013-01-30 09:42:00,
2013-01-30 02:52:00,19.0,11.0,30.16,East,90,6.0,11.0,69,0.00,,,-99.99,,2013-01-30 09:52:00,
2013-01-30 03:01:00,17.0,10.0,30.16,NW,315,8.0,13.0,73,0.00,,,-99.99,,2013-01-30 10:01:00,
2013-01-30 03:11:00,17.0,10.0,30.16,NW,315,8.0,13.0,73,0.00,,,-99.99,,2013-01-30 10:11:00,
2013-01-30 03:21:00,18.0,11.0,30.17,NW,315,6.0,11.0,74,0.00,,,-99.99,,2013-01-30 10:21:00,
2013-01-30 03:31:00,17.0,9.0,30.18,NE,45,5.0,8.0,71,0.00,,,-99.99,,2013-01-30 10:31:00,
2013-01-30 03:41:00,17.0,9.0,30.18,NE,45,5.0,8.0,71,0.00,,,-99.99,,2013-01-30 10:41:00,
2013-01-30 03:51:00,17.0,9.0,30.17,East,90,9.0,12.0,71,0.00,,,-99.99,,2013-01-30 10:51:00,
2013-01-30 04:01:00,17.0,9.0,30.17,East,90,6.0,11.0,70,0.00,,,-99.99,,2013-01-30 11:01:00,
2013-01-30 04:11:00,17.0,9.0,30.17,East,90,6.0,11.0,70,0.00,,,-99.99,,2013-01-30 11:11:00,
2013-01-30 04:21:00,19.0,10.0,30.18,North,360,4.0,8.0,67,0.00,,,-99.99,,2013-01-30 11:21:00,
2013-01-30 04:32:00,19.0,10.0,30.17,NE,45,5.0,11.0,66,0.00,,,-99.99,,2013-01-30 11:32:00,
2013-01-30 04:41:00,19.0,10.0,30.17,NE,45,5.0,11.0,66,0.00,,,-99.99,,2013-01-30 11:41:00,
2013-01-30 04:52:00,18.0,8.0,30.17,West,270,3.0,8.0,65,0.00,,,-99.99,,2013-01-30 11:52:00,
2013-01-30 05:01:00,18.0,8.0,30.17,West,270,3.0,8.0,65,0.00,,,-99.99,,2013-01-30 12:01:00,
2013-01-30 05:12:00,18.0,8.0,30.17,West,270,3.0,8.0,65,0.00,,,-99.99,,2013-01-30 12:12:00,
2013-01-30 05:21:00,19.0,10.0,30.18,West,270,4.0,9.0,66,0.00,,,-99.99,,2013-01-30 12:21:00,
2013-01-30 05:33:00,19.0,10.0,30.19,North,360,3.0,6.0,67,0.00,,,-99.99,,2013-01-30 12:33:00,
2013-01-30 05:43:00,19.0,10.0,30.19,North,360,3.0,6.0,67,0.00,,,-99.99,,2013-01-30 12:43:00,
2013-01-30 06:02:00,18.0,9.0,30.19,NNW,338,5.0,9.0,67,0.00,,,-99.99,,2013-01-30 13:02:00,
2013-01-30 06:12:00,18.0,9.0,30.19,NNW,338,5.0,9.0,67,0.00,,,-99.99,,2013-01-30 13:12:00,
2013-01-30 06:22:00,18.0,9.0,30.19,NNW,338,5.0,9.0,67,0.00,,,-99.99,,2013-01-30 13:22:00,
2013-01-30 06:33:00,18.0,10.0,30.19,East,90,7.0,11.0,69,0.00,,,-99.99,,2013-01-30 13:33:00,
2013-01-30 06:43:00,18.0,10.0,30.19,East,90,7.0,11.0,69,0.00,,,-99.99,,2013-01-30 13:43:00,
2013-01-30 06:53:00,18.0,10.0,30.19,NE,45,6.0,11.0,69,0.00,,,-99.99,,2013-01-30 13:53:00,
2013-01-30 07:01:00,18.0,10.0,30.19,NE,45,6.0,11.0,70,0.00,,,-99.99,,2013-01-30 14:01:00,
2013-01-30 07:11:00,18.0,10.0,30.19,NE,45,6.0,11.0,70,0.00,,,-99.99,,2013-01-30 14:11:00,
2013-01-30 07:21:00,15.0,8.0,30.20,North,360,0.0,3.0,72,0.00,,,-99.99,,2013-01-30 14:21:00,
2013-01-30 07:32:00,12.0,6.0,30.20,West,270,2.0,4.0,78,0.00,,,-99.99,,2013-01-30 14:32:00,
2013-01-30 07:42:00,12.0,6.0,30.20,West,270,2.0,4.0,78,0.00,,,-99.99,,2013-01-30 14:42:00,
2013-01-30 07:52:00,10.0,5.0,30.22,West,270,0.0,1.0,78,0.00,,,-99.99,,2013-01-30 14:52:00,
2013-01-30 08:02:00,12.0,9.0,30.22,South,180,1.0,4.0,88,0.00,,,-99.99,,2013-01-30 15:02:00,
2013-01-30 08:11:00,12.0,9.0,30.22,South,180,1.0,4.0,88,0.00,,,-99.99,,2013-01-30 15:11:00,
2013-01-30 08:22:00,14.0,8.0,30.22,East,90,1.0,4.0,78,0.00,,,-99.99,,2013-01-30 15:22:00,
2013-01-30 08:31:00,11.0,4.0,30.22,East,90,3.0,6.0,74,0.00,,,-99.99,,2013-01-30 15:31:00,
2013-01-30 08:42:00,11.0,4.0,30.22,East,90,3.0,6.0,74,0.00,,,-99.99,,2013-01-30 15:42:00,
2013-01-30 08:52:00,15.0,11.0,30.22,East,90,1.0,3.0,83,0.00,,,-99.99,,2013-01-30 15:52:00,
2013-01-30 09:02:00,23.0,9.0,30.22,North,360,2.0,8.0,55,0.00,,,-99.99,,2013-01-30 16:02:00,
2013-01-30 09:22:00,22.0,11.0,30.22,NW,315,2.0,4.0,61,0.00,,,-99.99,,2013-01-30 16:22:00,
2013-01-30 09:32:00,21.0,11.0,30.23,North,360,3.0,5.0,65,0.00,,,-99.99,,2013-01-30 16:32:00,
2013-01-30 09:41:00,21.0,11.0,30.23,North,360,3.0,5.0,65,0.00,,,-99.99,,2013-01-30 16:41:00,
2013-01-30 09:52:00,21.0,11.0,30.23,North,360,3.0,5.0,65,0.00,,,-99.99,,2013-01-30 16:52:00,
2013-01-30 10:01:00,33.0,21.0,30.24,North,360,1.0,3.0,60,0.00,,,-99.99,,2013-01-30 17:01:00,
2013-01-30 10:31:00,32.0,18.0,30.25,NW,315,3.0,4.0,56,0.00,,,-99.99,,2013-01-30 17:31:00,
2013-01-30 10:53:00,32.0,18.0,30.25,NW,315,3.0,4.0,55,0.00,,,-99.99,,2013-01-30 17:53:00,
2013-01-30 11:02:00,32.0,18.0,30.25,NW,315,3.0,4.0,55,0.00,,,-99.99,,2013-01-30 18:02:00,
2013-01-30 11:11:00,32.0,18.0,30.25,NW,315,3.0,4.0,55,0.00,,,-99.99,,2013-01-30 18:11:00,
2013-01-30 11:22:00,35.0,19.0,30.26,NW,315,3.0,7.0,51,0.00,,,-99.99,,2013-01-30 18:22:00,
2013-01-30 11:33:00,36.0,22.0,30.26,NW,315,6.0,9.0,57,0.00,,,-99.99,,2013-01-30 18:33:00,
2013-01-30 11:42:00,36.0,22.0,30.26,NW,315,6.0,9.0,57,0.00,,,-99.99,,2013-01-30 18:42:00,
2013-01-30 11:51:00,36.0,22.0,30.26,NW,315,6.0,9.0,57,0.00,,,-99.99,,2013-01-30 18:51:00,
2013-01-30 12:02:00,36.0,22.0,30.26,NW,315,6.0,9.0,57,0.00,,,-99.99,,2013-01-30 19:02:00,
2013-01-30 12:11:00,36.0,22.0,30.26,NW,315,6.0,9.0,57,0.00,,,-99.99,,2013-01-30 19:11:00,
2013-01-30 12:33:00,38.0,24.0,30.23,NW,315,5.0,8.0,56,0.00,,,-99.99,,2013-01-30 19:33:00,
2013-01-30 12:43:00,38.0,24.0,30.23,NW,315,5.0,8.0,56,0.00,,,-99.99,,2013-01-30 19:43:00,
2013-01-30 12:53:00,39.0,24.0,30.23,NW,315,4.0,7.0,55,0.00,,,-99.99,,2013-01-30 19:53:00,
2013-01-30 13:02:00,39.0,24.0,30.23,NW,315,4.0,7.0,55,0.00,,,-99.99,,2013-01-30 20:02:00,
2013-01-30 13:11:00,39.0,24.0,30.23,NW,315,4.0,7.0,55,0.00,,,-99.99,,2013-01-30 20:11:00,
2013-01-30 13:21:00,41.0,27.0,30.23,West,270,4.0,8.0,56,0.00,,,-99.99,,2013-01-30 20:21:00,
2013-01-30 13:33:00,42.0,24.0,30.22,West,270,4.0,7.0,49,0.00,,,-99.99,,2013-01-30 20:33:00,
2013-01-30 13:42:00,42.0,24.0,30.22,West,270,4.0,7.0,49,0.00,,,-99.99,,2013-01-30 20:42:00,
2013-01-30 13:52:00,42.0,26.0,30.22,West,270,3.0,5.0,52,0.00,,,-99.99,,2013-01-30 20:52:00,
2013-01-30 14:02:00,42.0,26.0,30.22,West,270,3.0,5.0,52,0.00,,,-99.99,,2013-01-30 21:02:00,
2013-01-30 14:11:00,42.0,26.0,30.22,West,270,3.0,5.0,52,0.00,,,-99.99,,2013-01-30 21:11:00,
2013-01-30 14:22:00,42.0,26.0,30.22,West,270,3.0,5.0,52,0.00,,,-99.99,,2013-01-30 21:22:00,
2013-01-30 14:32:00,38.0,26.0,30.21,NW,315,12.0,18.0,61,0.00,,,-99.99,,2013-01-30 21:32:00,
2013-01-30 14:43:00,38.0,26.0,30.21,NW,315,12.0,18.0,61,0.00,,,-99.99,,2013-01-30 21:43:00,
2013-01-30 14:52:00,39.0,26.0,30.21,NW,315,13.0,20.0,59,0.00,,,-99.99,,2013-01-30 21:52:00,
2013-01-30 15:02:00,39.0,25.0,30.21,NW,315,11.0,18.0,58,0.00,,,-99.99,,2013-01-30 22:02:00,
2013-01-30 15:11:00,39.0,25.0,30.21,NW,315,11.0,18.0,58,0.00,,,-99.99,,2013-01-30 22:11:00,
2013-01-30 15:21:00,38.0,25.0,30.21,NW,315,12.0,17.0,60,0.00,,,-99.99,,2013-01-30 22:21:00,
2013-01-30 15:31:00,38.0,25.0,30.21,NW,315,12.0,17.0,60,0.00,,,-99.99,,2013-01-30 22:31:00,
2013-01-30 15:41:00,38.0,25.0,30.21,NW,315,12.0,17.0,60,0.00,,,-99.99,,2013-01-30 22:41:00,
2013-01-30 15:52:00,38.0,25.0,30.21,NW,315,12.0,17.0,60,0.00,,,-99.99,,2013-01-30 22:52:00,
2013-01-30 16:01:00,37.0,25.0,30.21,NW,315,15.0,21.0,62,0.00,,,-99.99,,2013-01-30 23:01:00,
2013-01-30 16:12:00,37.0,25.0,30.21,NW,315,15.0,21.0,62,0.00,,,-99.99,,2013-01-30 23:12:00,
2013-01-30 16:22:00,37.0,26.0,30.20,NW,315,16.0,21.0,63,0.00,,,-99.99,,2013-01-30 23:22:00,
2013-01-30 16:32:00,37.0,26.0,30.21,NW,315,15.0,19.0,63,0.00,,,-99.99,,2013-01-30 23:32:00,
2013-01-30 16:52:00,37.0,25.0,30.21,NW,315,11.0,15.0,62,0.00,,,-99.99,,2013-01-30 23:52:00,
2013-01-30 17:01:00,39.0,26.0,30.22,WNW,292,9.0,12.0,59,0.00,,,-99.99,,2013-01-31 00:01:00,
2013-01-30 17:11:00,39.0,26.0,30.22,WNW,292,9.0,12.0,59,0.00,,,-99.99,,2013-01-31 00:11:00,
2013-01-30 17:21:00,39.0,26.0,30.22,WNW,292,9.0,12.0,59,0.00,,,-99.99,,2013-01-31 00:21:00,
2013-01-30 17:31:00,39.0,25.0,30.21,NW,315,8.0,14.0,58,0.00,,,-99.99,,2013-01-31 00:31:00,
2013-01-30 17:42:00,39.0,25.0,30.21,NW,315,8.0,14.0,58,0.00,,,-99.99,,2013-01-31 00:42:00,
2013-01-30 17:53:00,38.0,25.0,30.21,NW,315,7.0,13.0,60,0.00,,,-99.99,,2013-01-31 00:53:00,
2013-01-30 18:01:00,38.0,25.0,30.22,North,360,5.0,8.0,60,0.00,,,-99.99,,2013-01-31 01:01:00,
2013-01-30 18:11:00,38.0,25.0,30.22,North,360,5.0,8.0,60,0.00,,,-99.99,,2013-01-31 01:11:00,
2013-01-30 18:21:00,38.0,25.0,30.22,North,360,5.0,8.0,60,0.00,,,-99.99,,2013-01-31 01:21:00,
2013-01-30 18:31:00,33.0,24.0,30.22,East,90,1.0,4.0,68,0.00,,,-99.99,,2013-01-31 01:31:00,
2013-01-30 18:41:00,33.0,24.0,30.22,East,90,1.0,4.0,68,0.00,,,-99.99,,2013-01-31 01:41:00,
2013-01-30 18:52:00,33.0,24.0,30.23,NE,45,1.0,2.0,69,0.00,,,-99.99,,2013-01-31 01:52:00,
2013-01-30 19:01:00,33.0,24.0,30.23,North,360,2.0,4.0,68,0.00,,,-99.99,,2013-01-31 02:01:00,
2013-01-30 19:11:00,33.0,24.0,30.23,North,360,2.0,4.0,68,0.00,,,-99.99,,2013-01-31 02:11:00,
2013-01-30 19:21:00,33.0,24.0,30.23,NW,315,1.0,3.0,69,0.00,,,-99.99,,2013-01-31 02:21:00,
2013-01-30 19:32:00,31.0,23.0,30.23,East,90,0.0,2.0,71,0.00,,,-99.99,,2013-01-31 02:32:00,
2013-01-30 19:41:00,31.0,23.0,30.23,East,90,0.0,2.0,71,0.00,,,-99.99,,2013-01-31 02:41:00,
2013-01-30 19:52:00,31.0,23.0,30.23,East,90,0.0,2.0,71,0.00,,,-99.99,,2013-01-31 02:52:00,
2013-01-30 20:01:00,26.0,20.0,30.23,East,90,1.0,4.0,79,0.00,,,-99.99,,2013-01-31 03:01:00,
2013-01-30 20:21:00,26.0,23.0,30.24,East,90,3.0,5.0,87,0.00,,,-99.99,,2013-01-31 03:21:00,
2013-01-30 20:32:00,27.0,23.0,30.24,West,270,2.0,4.0,86,0.00,,,-99.99,,2013-01-31 03:32:00,
2013-01-30 20:41:00,27.0,23.0,30.24,West,270,2.0,4.0,86,0.00,,,-99.99,,2013-01-31 03:41:00,
2013-01-30 20:51:00,28.0,24.0,30.24,North,360,1.0,2.0,86,0.00,,,-99.99,,2013-01-31 03:51:00,
2013-01-30 21:02:00,25.0,22.0,30.24,West,270,0.0,2.0,88,0.00,,,-99.99,,2013-01-31 04:02:00,
2013-01-30 21:21:00,25.0,23.0,30.24,NE,45,2.0,3.0,91,0.00,,,-99.99,,2013-01-31 04:21:00,
2013-01-30 21:31:00,26.0,23.0,30.24,North,360,2.0,6.0,89,0.00,,,-99.99,,2013-01-31 04:31:00,
2013-01-30 21:41:00,26.0,23.0,30.24,North,360,2.0,6.0,89,0.00,,,-99.99,,2013-01-31 04:41:00,
2013-01-30 21:52:00,25.0,22.0,30.24,North,360,2.0,4.0,88,0.00,,,-99.99,,2013-01-31 04:52:00,
2013-01-30 22:11:00,25.0,22.0,30.24,North,360,2.0,4.0,88,0.00,,,-99.99,,2013-01-31 05:11:00,
2013-01-30 22:21:00,27.0,24.0,30.24,East,90,3.0,6.0,87,0.00,,,-99.99,,2013-01-31 05:21:00,
2013-01-30 22:31:00,27.0,24.0,30.24,East,90,3.0,6.0,87,0.00,,,-99.99,,2013-01-31 05:31:00,
2013-01-30 22:41:00,27.0,24.0,30.24,West,270,4.0,8.0,87,0.00,,,-99.99,,2013-01-31 05:41:00,
2013-01-30 22:51:00,27.0,24.0,30.24,West,270,4.0,8.0,87,0.00,,,-99.99,,2013-01-31 05:51:00,
2013-01-30 23:01:00,27.0,24.0,30.24,West,270,4.0,8.0,87,0.00,,,-99.99,,2013-01-31 06:01:00,